Time;durP1;ratioP1;P1;durP2;ratioP2;P2;SDS_P1;SDS_P2;PMS_P1;PMS_P2;Temp;Humidity;BMP_temperature;BMP_pressure;BME280_temperature;BME280_humidity;BME280_pressure;Samples;Min_cycle;Max_cycle;Signal;HPM_P1;HPM_P2
2024/01/04 00:01:25;;;;;;;74.43;70.68;;;;;;;;;;5027703;28;20063;-56
2024/01/04 00:03:51;;;;;;;73.20;69.55;;;;;;;;;;5029889;28;20028;-54
2024/01/04 00:06:17;;;;;;;64.72;61.45;;;;;;;;;;5029376;28;20124;-55
2024/01/04 00:08:43;;;;;;;54.80;52.05;;;;;;;;;;5030184;28;20029;-54
2024/01/04 00:11:08;;;;;;;57.08;54.17;;;;;;;;;;5029707;28;20106;-56
2024/01/04 00:13:33;;;;;;;52.80;50.13;;;;;;;;;;5032624;28;20451;-56
2024/01/04 00:15:59;;;;;;;48.83;46.33;;;;;;;;;;5024940;28;20037;-56
2024/01/04 00:18:25;;;;;;;46.42;44.10;;;;;;;;;;5029468;28;20033;-57
2024/01/04 00:20:50;;;;;;;45.72;43.42;;;;;;;;;;5025110;28;20026;-55
2024/01/04 00:23:16;;;;;;;44.13;41.92;;;;;;;;;;5029477;28;20051;-56
2024/01/04 00:25:41;;;;;;;43.60;41.40;;;;;;;;;;5026439;28;20653;-52
2024/01/04 00:28:07;;;;;;;41.78;39.65;;;;;;;;;;5027612;28;20474;-53
2024/01/04 00:30:32;;;;;;;43.45;41.25;;;;;;;;;;5026165;28;20599;-53
2024/01/04 00:32:57;;;;;;;44.33;42.08;;;;;;;;;;5026713;28;20105;-54
2024/01/04 00:35:23;;;;;;;43.35;41.15;;;;;;;;;;5028052;28;20102;-53
2024/01/04 00:37:49;;;;;;;43.67;41.47;;;;;;;;;;5026188;28;20482;-57
2024/01/04 00:40:14;;;;;;;44.72;42.42;;;;;;;;;;5027328;28;20033;-52
2024/01/04 00:42:40;;;;;;;44.25;41.95;;;;;;;;;;5029437;28;20351;-54
2024/01/04 00:45:05;;;;;;;43.58;41.38;;;;;;;;;;5028997;28;20064;-55
2024/01/04 00:47:31;;;;;;;44.78;42.50;;;;;;;;;;5027586;28;20116;-52
2024/01/04 00:49:57;;;;;;;44.17;41.92;;;;;;;;;;5031704;28;20103;-52
2024/01/04 00:52:22;;;;;;;46.13;43.80;;;;;;;;;;5026568;28;20029;-54
2024/01/04 00:54:47;;;;;;;45.55;43.22;;;;;;;;;;5028617;28;20036;-57
2024/01/04 00:57:13;;;;;;;43.75;41.53;;;;;;;;;;5021581;28;20162;-57
2024/01/04 00:59:38;;;;;;;43.47;41.28;;;;;;;;;;5026183;28;20047;-57
2024/01/04 01:02:04;;;;;;;43.20;41.00;;;;;;;;;;5025049;28;20111;-56
2024/01/04 01:04:29;;;;;;;47.50;45.10;;;;;;;;;;5026894;28;20047;-57
2024/01/04 01:06:55;;;;;;;45.00;42.72;;;;;;;;;;5023672;28;20040;-55
2024/01/04 01:09:20;;;;;;;46.13;43.80;;;;;;;;;;5031104;28;20040;-53
2024/01/04 01:11:45;;;;;;;48.70;46.25;;;;;;;;;;5033856;28;20053;-56
2024/01/04 01:14:11;;;;;;;46.03;43.70;;;;;;;;;;5030478;28;20094;-53
2024/01/04 01:16:36;;;;;;;47.60;45.20;;;;;;;;;;5028053;28;20041;-55
2024/01/04 01:19:02;;;;;;;47.55;45.15;;;;;;;;;;5024940;28;20056;-51
2024/01/04 01:21:28;;;;;;;48.58;45.20;;;;;;;;;;5029066;28;20118;-53
2024/01/04 01:23:53;;;;;;;50.08;47.53;;;;;;;;;;5027282;28;20092;-54
2024/01/04 01:26:18;;;;;;;49.33;46.83;;;;;;;;;;5027656;28;20116;-51
2024/01/04 01:28:44;;;;;;;50.67;48.10;;;;;;;;;;5025195;28;20183;-52
2024/01/04 01:31:09;;;;;;;50.40;47.85;;;;;;;;;;5027985;28;20080;-53
2024/01/04 01:33:34;;;;;;;48.92;46.42;;;;;;;;;;5027929;28;20048;-53
2024/01/04 01:36:01;;;;;;;48.00;45.60;;;;;;;;;;5027635;28;20474;-54
2024/01/04 01:38:27;;;;;;;47.70;45.30;;;;;;;;;;5024830;28;20404;-53
2024/01/04 01:40:52;;;;;;;49.60;47.10;;;;;;;;;;5021778;28;20093;-55
2024/01/04 01:43:18;;;;;;;45.28;42.97;;;;;;;;;;5024713;28;20110;-54
2024/01/04 01:45:44;;;;;;;47.80;45.40;;;;;;;;;;5024295;28;20129;-51
2024/01/04 01:48:13;;;;;;;49.13;46.63;;;;;;;;;;5025666;28;20045;-51
2024/01/04 01:50:40;;;;;;;46.90;44.50;;;;;;;;;;5029853;28;20063;-52
2024/01/04 01:53:06;;;;;;;46.00;43.70;;;;;;;;;;5025694;28;20041;-56
2024/01/04 01:55:31;;;;;;;46.65;44.28;;;;;;;;;;5026968;28;20498;-54
2024/01/04 01:57:57;;;;;;;44.42;42.17;;;;;;;;;;5028548;28;20407;-53
2024/01/04 02:00:23;;;;;;;49.63;47.13;;;;;;;;;;5033477;28;20573;-55
2024/01/04 02:02:49;;;;;;;43.85;41.63;;;;;;;;;;5031455;28;20041;-56
2024/01/04 02:05:15;;;;;;;42.38;40.22;;;;;;;;;;5031320;28;20052;-55
2024/01/04 02:07:43;;;;;;;45.03;42.75;;;;;;;;;;5028275;28;20037;-56
2024/01/04 02:10:08;;;;;;;45.17;42.90;;;;;;;;;;5030589;28;20110;-55
2024/01/04 02:12:33;;;;;;;43.80;41.55;;;;;;;;;;5029653;28;20455;-55
2024/01/04 02:14:59;;;;;;;44.05;41.83;;;;;;;;;;5030115;28;20043;-52
2024/01/04 02:17:25;;;;;;;44.28;42.00;;;;;;;;;;5031596;28;20041;-55
2024/01/04 02:19:51;;;;;;;48.03;45.63;;;;;;;;;;5036637;28;20363;-54
2024/01/04 02:22:17;;;;;;;45.10;42.83;;;;;;;;;;5030081;28;20041;-51
2024/01/04 02:24:43;;;;;;;47.00;44.60;;;;;;;;;;5031851;28;20737;-54
2024/01/04 02:27:08;;;;;;;47.90;45.47;;;;;;;;;;5031314;28;20035;-51
2024/01/04 02:29:34;;;;;;;49.70;47.17;;;;;;;;;;5031207;28;20109;-51
2024/01/04 02:31:59;;;;;;;50.47;47.92;;;;;;;;;;5029694;28;20033;-50
2024/01/04 02:34:25;;;;;;;52.75;50.10;;;;;;;;;;5038600;28;20037;-54
2024/01/04 02:36:50;;;;;;;56.75;53.90;;;;;;;;;;5030567;28;20036;-55
2024/01/04 02:39:15;;;;;;;54.95;52.17;;;;;;;;;;5031914;28;20041;-54
2024/01/04 02:41:41;;;;;;;56.53;53.67;;;;;;;;;;5030708;28;20032;-54
2024/01/04 02:44:06;;;;;;;58.95;56.00;;;;;;;;;;5029308;28;20037;-52
2024/01/04 02:46:31;;;;;;;71.07;67.53;;;;;;;;;;5034382;28;20045;-53
2024/01/04 02:48:57;;;;;;;74.28;70.55;;;;;;;;;;5029095;28;20034;-50
2024/01/04 02:51:22;;;;;;;74.80;71.05;;;;;;;;;;5026398;28;20374;-53
2024/01/04 02:53:47;;;;;;;75.88;72.10;;;;;;;;;;5024382;28;20152;-51
2024/01/04 02:56:12;;;;;;;75.50;71.75;;;;;;;;;;5029963;28;20094;-54
2024/01/04 02:58:38;;;;;;;77.43;73.57;;;;;;;;;;5028622;28;20053;-54
2024/01/04 03:01:03;;;;;;;78.90;74.97;;;;;;;;;;5031970;28;20029;-54
2024/01/04 03:03:28;;;;;;;82.70;78.50;;;;;;;;;;5032012;28;20131;-54
2024/01/04 03:05:54;;;;;;;84.50;80.32;;;;;;;;;;5029387;28;20116;-52
2024/01/04 03:08:19;;;;;;;79.50;75.55;;;;;;;;;;5030913;28;20143;-53
2024/01/04 03:10:45;;;;;;;89.38;84.93;;;;;;;;;;5033338;28;20129;-54
2024/01/04 03:13:10;;;;;;;92.05;87.30;;;;;;;;;;5029743;28;20039;-55
2024/01/04 03:15:35;;;;;;;89.10;84.70;;;;;;;;;;5030237;28;20079;-55
2024/01/04 03:18:01;;;;;;;90.63;86.13;;;;;;;;;;5031470;28;20029;-54
2024/01/04 03:20:26;;;;;;;77.93;74.05;;;;;;;;;;5033169;28;20028;-55
2024/01/04 03:22:51;;;;;;;80.30;76.30;;;;;;;;;;5029145;28;20479;-55
2024/01/04 03:25:17;;;;;;;79.93;75.93;;;;;;;;;;5031439;28;20125;-55
2024/01/04 03:27:43;;;;;;;76.55;72.75;;;;;;;;;;5029423;28;20056;-53
2024/01/04 03:30:10;;;;;;;74.57;70.88;;;;;;;;;;5031900;28;20103;-54
2024/01/04 03:32:35;;;;;;;66.97;63.63;;;;;;;;;;5031672;28;20045;-49
2024/01/04 03:35:00;;;;;;;70.28;66.78;;;;;;;;;;5028122;28;20096;-52
2024/01/04 03:37:26;;;;;;;68.50;65.07;;;;;;;;;;5032131;28;20111;-50
2024/01/04 03:39:51;;;;;;;64.38;61.17;;;;;;;;;;5026244;28;20051;-52
2024/01/04 03:42:17;;;;;;;61.28;58.22;;;;;;;;;;5032203;28;20040;-55
2024/01/04 03:44:43;;;;;;;54.42;51.70;;;;;;;;;;5031517;28;20143;-53
2024/01/04 03:47:09;;;;;;;51.67;49.08;;;;;;;;;;5029590;28;20486;-53
2024/01/04 03:49:34;;;;;;;52.50;49.85;;;;;;;;;;5026937;28;20044;-55
2024/01/04 03:52:00;;;;;;;49.85;47.35;;;;;;;;;;5028641;28;20040;-54
2024/01/04 03:54:25;;;;;;;49.50;47.00;;;;;;;;;;5029908;28;20129;-53
2024/01/04 03:56:51;;;;;;;48.40;46.00;;;;;;;;;;5027092;28;20037;-53
2024/01/04 03:59:16;;;;;;;45.80;43.50;;;;;;;;;;5026521;28;20142;-54
2024/01/04 04:01:44;;;;;;;45.65;43.35;;;;;;;;;;5028837;28;20435;-56
2024/01/04 04:04:09;;;;;;;42.38;39.97;;;;;;;;;;5032798;28;20431;-52
2024/01/04 04:06:35;;;;;;;42.92;40.72;;;;;;;;;;5028368;28;20033;-50
2024/01/04 04:09:00;;;;;;;46.30;43.95;;;;;;;;;;5034682;28;20065;-53
2024/01/04 04:11:25;;;;;;;43.63;41.42;;;;;;;;;;5030384;28;20116;-55
2024/01/04 04:13:51;;;;;;;44.10;41.90;;;;;;;;;;5027987;28;20056;-50
2024/01/04 04:16:16;;;;;;;46.78;44.38;;;;;;;;;;5026483;28;20121;-55
2024/01/04 04:18:42;;;;;;;43.47;41.28;;;;;;;;;;5026542;28;20030;-55
2024/01/04 04:21:08;;;;;;;45.22;42.92;;;;;;;;;;5028697;28;20370;-53
2024/01/04 04:23:33;;;;;;;44.03;41.83;;;;;;;;;;5016321;28;20118;-53
2024/01/04 04:26:04;;;;;;;46.90;44.50;;;;;;;;;;5025859;28;20063;-54
2024/01/04 04:28:29;;;;;;;44.25;42.05;;;;;;;;;;5025307;28;20033;-54
2024/01/04 04:30:54;;;;;;;47.55;45.15;;;;;;;;;;5027828;28;20581;-54
2024/01/04 04:33:20;;;;;;;44.85;42.55;;;;;;;;;;5029119;28;20034;-54
2024/01/04 04:35:45;;;;;;;46.45;44.10;;;;;;;;;;5029134;28;20029;-51
2024/01/04 04:38:10;;;;;;;43.70;41.50;;;;;;;;;;5029928;28;20036;-51
2024/01/04 04:40:35;;;;;;;42.90;40.70;;;;;;;;;;5028341;28;20044;-53
2024/01/04 04:43:01;;;;;;;41.90;39.78;;;;;;;;;;5021849;28;20036;-52
2024/01/04 04:45:26;;;;;;;41.53;39.42;;;;;;;;;;5028187;28;20065;-53
2024/01/04 04:47:51;;;;;;;43.63;41.40;;;;;;;;;;5025671;28;20104;-51
2024/01/04 04:50:17;;;;;;;44.88;42.60;;;;;;;;;;5028323;28;20052;-53
2024/01/04 04:52:42;;;;;;;41.80;39.67;;;;;;;;;;5027742;28;20036;-52
2024/01/04 04:55:08;;;;;;;42.25;40.13;;;;;;;;;;5030709;28;20037;-53
2024/01/04 04:57:33;;;;;;;41.47;39.35;;;;;;;;;;5031291;28;20048;-53
2024/01/04 04:59:58;;;;;;;40.67;38.60;;;;;;;;;;5028748;28;20469;-55
2024/01/04 05:02:24;;;;;;;44.50;42.22;;;;;;;;;;5030468;28;20036;-56
2024/01/04 05:04:49;;;;;;;45.83;43.47;;;;;;;;;;5027226;28;20517;-57
2024/01/04 05:07:14;;;;;;;45.25;42.97;;;;;;;;;;5027819;28;20037;-56
2024/01/04 05:09:40;;;;;;;46.20;43.85;;;;;;;;;;5026091;28;20041;-55
2024/01/04 05:12:05;;;;;;;47.53;45.10;;;;;;;;;;5025624;28;20470;-53
2024/01/04 05:14:30;;;;;;;46.78;44.40;;;;;;;;;;5028232;28;20055;-52
2024/01/04 05:16:56;;;;;;;45.75;43.42;;;;;;;;;;5026502;28;20123;-53
2024/01/04 05:19:21;;;;;;;44.95;42.67;;;;;;;;;;5027261;28;20348;-56
2024/01/04 05:21:46;;;;;;;46.00;43.67;;;;;;;;;;5025371;28;20038;-56
2024/01/04 05:24:12;;;;;;;46.60;44.03;;;;;;;;;;5028811;28;20045;-55
2024/01/04 05:26:37;;;;;;;49.60;47.10;;;;;;;;;;5027475;28;20037;-56
2024/01/04 05:29:02;;;;;;;50.95;48.38;;;;;;;;;;5027578;28;20029;-54
2024/01/04 05:31:27;;;;;;;48.95;46.47;;;;;;;;;;5033112;28;20470;-54
2024/01/04 05:33:53;;;;;;;47.50;45.08;;;;;;;;;;5029764;28;20030;-54
2024/01/04 05:36:18;;;;;;;48.30;45.88;;;;;;;;;;5030735;28;20483;-56
2024/01/04 05:38:43;;;;;;;47.50;45.10;;;;;;;;;;5034914;28;20037;-56
2024/01/04 05:41:09;;;;;;;46.78;44.42;;;;;;;;;;5029267;28;20060;-55
2024/01/04 05:43:35;;;;;;;43.72;41.50;;;;;;;;;;5030841;28;20121;-55
2024/01/04 05:46:04;;;;;;;46.90;44.03;;;;;;;;;;5032360;28;20038;-54
2024/01/04 05:48:29;;;;;;;46.05;43.60;;;;;;;;;;5028633;28;20407;-53
2024/01/04 05:50:55;;;;;;;43.10;40.92;;;;;;;;;;5035729;28;20048;-55
2024/01/04 05:53:20;;;;;;;42.10;39.95;;;;;;;;;;5032515;28;20029;-55
2024/01/04 05:55:45;;;;;;;44.13;41.92;;;;;;;;;;5029725;28;20049;-52
2024/01/04 05:58:11;;;;;;;43.70;41.50;;;;;;;;;;5031702;28;20076;-53
2024/01/04 06:00:36;;;;;;;41.92;39.83;;;;;;;;;;5030008;28;20045;-50
2024/01/04 06:03:01;;;;;;;41.42;39.33;;;;;;;;;;5029111;28;20364;-48
2024/01/04 06:05:27;;;;;;;42.05;39.92;;;;;;;;;;5033277;28;20109;-50
2024/01/04 06:07:52;;;;;;;42.58;40.40;;;;;;;;;;5031567;28;20044;-51
2024/01/04 06:10:18;;;;;;;42.45;40.28;;;;;;;;;;5037718;28;20076;-49
2024/01/04 06:12:43;;;;;;;43.38;41.17;;;;;;;;;;5029806;28;21357;-51
2024/01/04 06:15:09;;;;;;;42.35;40.20;;;;;;;;;;5033021;28;20044;-52
2024/01/04 06:17:35;;;;;;;44.78;42.47;;;;;;;;;;5031584;28;20052;-52
2024/01/04 06:20:00;;;;;;;41.08;38.97;;;;;;;;;;5037416;28;20021;-53
2024/01/04 06:22:25;;;;;;;42.38;40.22;;;;;;;;;;5032593;28;20535;-54
2024/01/04 06:24:51;;;;;;;42.70;40.55;;;;;;;;;;5023552;28;20430;-52
2024/01/04 06:27:16;;;;;;;43.53;41.30;;;;;;;;;;5027730;28;20037;-52
2024/01/04 06:29:44;;;;;;;42.70;40.53;;;;;;;;;;5027173;28;20079;-51
2024/01/04 06:32:09;;;;;;;41.47;39.38;;;;;;;;;;5031654;28;20106;-52
2024/01/04 06:34:34;;;;;;;43.85;41.60;;;;;;;;;;5030155;28;20128;-53
2024/01/04 06:37:00;;;;;;;43.33;41.13;;;;;;;;;;5030648;28;20033;-54
2024/01/04 06:39:26;;;;;;;43.60;41.40;;;;;;;;;;5027815;28;20462;-53
2024/01/04 06:41:51;;;;;;;43.13;40.92;;;;;;;;;;5029317;28;20044;-55
2024/01/04 06:44:16;;;;;;;42.72;40.55;;;;;;;;;;5032654;28;20036;-55
2024/01/04 06:46:42;;;;;;;44.47;42.22;;;;;;;;;;5029986;28;20041;-54
2024/01/04 06:49:07;;;;;;;43.50;41.30;;;;;;;;;;5029395;28;20038;-53
2024/01/04 06:51:32;;;;;;;43.80;41.60;;;;;;;;;;5033323;28;20029;-54
2024/01/04 06:53:57;;;;;;;44.90;42.63;;;;;;;;;;5024577;28;20482;-51
2024/01/04 06:56:23;;;;;;;43.13;40.95;;;;;;;;;;5033003;28;20065;-52
2024/01/04 06:58:48;;;;;;;42.10;39.97;;;;;;;;;;5032806;28;20504;-52
2024/01/04 07:01:13;;;;;;;45.03;42.72;;;;;;;;;;5029085;28;20068;-54
2024/01/04 07:03:39;;;;;;;42.33;40.03;;;;;;;;;;5032498;28;20072;-55
2024/01/04 07:06:05;;;;;;;43.65;41.40;;;;;;;;;;5030053;28;20037;-53
2024/01/04 07:08:31;;;;;;;44.25;42.03;;;;;;;;;;5028909;28;20021;-53
2024/01/04 07:10:56;;;;;;;43.35;41.15;;;;;;;;;;5032198;28;20029;-54
2024/01/04 07:13:21;;;;;;;43.88;41.65;;;;;;;;;;5037089;28;20048;-52
2024/01/04 07:15:48;;;;;;;44.95;42.65;;;;;;;;;;5031747;28;20056;-52
2024/01/04 07:18:14;;;;;;;44.53;42.28;;;;;;;;;;5026696;28;20037;-53
2024/01/04 07:20:41;;;;;;;44.05;41.80;;;;;;;;;;5031941;28;20044;-51
2024/01/04 07:23:06;;;;;;;46.05;43.70;;;;;;;;;;5026261;28;20517;-53
2024/01/04 07:25:34;;;;;;;46.95;44.58;;;;;;;;;;5033892;28;20037;-55
2024/01/04 07:27:59;;;;;;;44.65;42.25;;;;;;;;;;5028490;28;20021;-54
2024/01/04 07:30:24;;;;;;;46.78;44.40;;;;;;;;;;5026101;28;20044;-51
2024/01/04 07:32:50;;;;;;;44.70;42.45;;;;;;;;;;5031658;28;20090;-53
2024/01/04 07:35:16;;;;;;;46.25;43.88;;;;;;;;;;5026479;28;20037;-55
2024/01/04 07:37:41;;;;;;;45.25;42.95;;;;;;;;;;5030667;28;20060;-54
2024/01/04 07:40:07;;;;;;;46.90;44.55;;;;;;;;;;5025411;28;20056;-51
2024/01/04 07:42:33;;;;;;;44.30;42.05;;;;;;;;;;5028987;28;20029;-55
2024/01/04 07:44:58;;;;;;;44.20;41.97;;;;;;;;;;5029475;28;20049;-54
2024/01/04 07:47:23;;;;;;;43.78;41.55;;;;;;;;;;5029487;28;20052;-55
2024/01/04 07:49:49;;;;;;;46.92;44.55;;;;;;;;;;5027437;28;20020;-53
2024/01/04 07:52:14;;;;;;;44.10;41.88;;;;;;;;;;5030512;28;20041;-53
2024/01/04 07:54:39;;;;;;;46.53;44.17;;;;;;;;;;5026248;28;20271;-52
2024/01/04 07:57:05;;;;;;;46.45;44.10;;;;;;;;;;5025121;28;20234;-53
2024/01/04 07:59:30;;;;;;;44.58;42.33;;;;;;;;;;5029635;28;20429;-51
2024/01/04 08:01:56;;;;;;;45.22;42.88;;;;;;;;;;5025406;28;20090;-53
2024/01/04 08:04:21;;;;;;;44.70;42.42;;;;;;;;;;5030112;28;20049;-52
2024/01/04 08:06:50;;;;;;;45.75;43.45;;;;;;;;;;5028559;28;20108;-55
2024/01/04 08:09:15;;;;;;;45.33;43.00;;;;;;;;;;5032746;28;20042;-54
2024/01/04 08:11:40;;;;;;;45.30;43.00;;;;;;;;;;5028646;28;20398;-53
2024/01/04 08:14:06;;;;;;;48.08;45.67;;;;;;;;;;5028017;28;20091;-55
2024/01/04 08:16:32;;;;;;;42.47;40.30;;;;;;;;;;5026537;28;20467;-54
2024/01/04 08:18:57;;;;;;;43.60;41.38;;;;;;;;;;5028727;28;20051;-53
2024/01/04 08:21:22;;;;;;;44.50;42.25;;;;;;;;;;5029689;28;20033;-53
2024/01/04 08:23:50;;;;;;;44.33;42.05;;;;;;;;;;5027413;28;20048;-52
2024/01/04 08:26:16;;;;;;;46.10;43.72;;;;;;;;;;5029714;28;20431;-53
2024/01/04 08:28:41;;;;;;;44.20;41.95;;;;;;;;;;5024037;28;20120;-52
2024/01/04 08:31:07;;;;;;;42.38;40.20;;;;;;;;;;5026894;28;20041;-54
2024/01/04 08:33:33;;;;;;;43.72;41.53;;;;;;;;;;5029780;28;20033;-51
2024/01/04 08:35:58;;;;;;;43.20;41.00;;;;;;;;;;5027912;28;20115;-54
2024/01/04 08:38:23;;;;;;;42.95;40.75;;;;;;;;;;5022589;28;20041;-53
2024/01/04 08:40:49;;;;;;;45.65;43.33;;;;;;;;;;5030085;28;20561;-54
2024/01/04 08:43:15;;;;;;;44.25;42.00;;;;;;;;;;5029289;28;20340;-51
2024/01/04 08:45:40;;;;;;;44.58;42.30;;;;;;;;;;5029949;28;20531;-53
2024/01/04 08:48:06;;;;;;;43.35;41.15;;;;;;;;;;5028871;28;20907;-52
2024/01/04 08:50:31;;;;;;;44.22;42.00;;;;;;;;;;5028620;28;20029;-52
2024/01/04 08:52:56;;;;;;;44.80;42.53;;;;;;;;;;5027151;28;20066;-49
2024/01/04 08:55:22;;;;;;;48.53;46.00;;;;;;;;;;5029046;28;20133;-49
2024/01/04 08:57:48;;;;;;;48.08;45.63;;;;;;;;;;5031929;28;20359;-50
2024/01/04 09:00:14;;;;;;;43.80;41.60;;;;;;;;;;5032096;28;20354;-49
2024/01/04 09:02:40;;;;;;;45.60;43.30;;;;;;;;;;5028693;28;20037;-50
2024/01/04 09:05:06;;;;;;;42.72;40.55;;;;;;;;;;5026842;28;20449;-50
2024/01/04 09:07:31;;;;;;;45.83;43.50;;;;;;;;;;5028943;28;20029;-51
2024/01/04 09:09:57;;;;;;;44.78;42.47;;;;;;;;;;5022242;28;20079;-51
2024/01/04 09:12:22;;;;;;;44.30;42.08;;;;;;;;;;5023069;28;20048;-53
2024/01/04 09:14:47;;;;;;;42.70;40.53;;;;;;;;;;5023705;28;20042;-51
2024/01/04 09:17:13;;;;;;;46.45;44.10;;;;;;;;;;5030240;28;20106;-51
2024/01/04 09:19:40;;;;;;;47.53;45.03;;;;;;;;;;5029118;28;20295;-52
2024/01/04 09:22:05;;;;;;;42.88;40.70;;;;;;;;;;5027859;28;20053;-51
2024/01/04 09:24:32;;;;;;;44.65;42.40;;;;;;;;;;5023351;28;20509;-51
2024/01/04 09:26:57;;;;;;;45.78;43.17;;;;;;;;;;5029346;28;20021;-50
2024/01/04 09:29:22;;;;;;;45.97;43.67;;;;;;;;;;5026123;28;20040;-49
2024/01/04 09:31:48;;;;;;;45.33;42.90;;;;;;;;;;5026463;28;20033;-54
2024/01/04 09:34:13;;;;;;;45.85;43.55;;;;;;;;;;5028973;28;20045;-52
2024/01/04 09:36:38;;;;;;;45.42;43.13;;;;;;;;;;5030431;28;20047;-51
2024/01/04 09:39:04;;;;;;;43.75;41.53;;;;;;;;;;5032418;28;20132;-55
2024/01/04 09:41:35;;;;;;;45.22;42.92;;;;;;;;;;5027725;28;20040;-55
2024/01/04 09:44:01;;;;;;;;;;;;;;;;;;5030360;28;20499;-50
2024/01/04 09:46:32;;;;;;;41.72;39.63;;;;;;;;;;5021209;28;19921;-54
2024/01/04 09:48:58;;;;;;;43.05;40.85;;;;;;;;;;5020691;28;20033;-53
2024/01/04 09:51:26;;;;;;;47.85;45.45;;;;;;;;;;5025003;28;20026;-54
2024/01/04 09:53:53;;;;;;;46.10;43.75;;;;;;;;;;5024468;28;20021;-53
2024/01/04 09:56:20;;;;;;;44.97;42.70;;;;;;;;;;5025055;28;20065;-54
2024/01/04 09:58:48;;;;;;;45.03;42.75;;;;;;;;;;5028405;28;20033;-51
2024/01/04 10:01:19;;;;;;;46.85;44.47;;;;;;;;;;5032417;28;20067;-55
2024/01/04 10:03:45;;;;;;;;;;;;;;;;;;5027939;28;20408;-51
2024/01/04 10:06:12;;;;;;;43.10;40.60;;;;;;;;;;5029934;28;20377;-55
2024/01/04 10:08:42;;;;;;;43.65;41.47;;;;;;;;;;5029516;28;20022;-53
2024/01/04 10:11:23;;;;;;;46.42;43.92;;;;;;;;;;5026812;28;20033;-55
2024/01/04 10:13:49;;;;;;;43.45;41.25;;;;;;;;;;5028889;28;20324;-54
2024/01/04 10:16:15;;;;;;;44.05;41.80;;;;;;;;;;5028056;28;20029;-60
2024/01/04 10:18:41;;;;;;;45.42;43.13;;;;;;;;;;5034411;28;20022;-60
2024/01/04 10:21:08;;;;;;;45.70;43.30;;;;;;;;;;5028965;28;20057;-60
2024/01/04 10:23:33;;;;;;;46.63;44.28;;;;;;;;;;5037489;28;20041;-60
2024/01/04 10:26:09;;;;;;;47.05;44.65;;;;;;;;;;5030547;28;20053;-60
2024/01/04 10:28:39;;;;;;;47.55;45.13;;;;;;;;;;5028530;28;20029;-60
2024/01/04 10:31:08;;;;;;;46.20;43.70;;;;;;;;;;5032433;28;20045;-60
2024/01/04 10:33:35;;;;;;;48.33;45.72;;;;;;;;;;5030682;28;20056;-60
2024/01/04 10:36:08;;;;;;;47.17;44.78;;;;;;;;;;5031178;28;20038;-59
2024/01/04 10:38:33;;;;;;;47.55;45.13;;;;;;;;;;5029487;28;20095;-59
2024/01/04 10:41:02;;;;;;;49.55;47.00;;;;;;;;;;5033104;28;20040;-61
2024/01/04 10:43:30;;;;;;;48.08;45.65;;;;;;;;;;5030842;28;20042;-59
2024/01/04 10:46:08;;;;;;;52.10;49.47;;;;;;;;;;5027018;28;20041;-59
2024/01/04 10:48:35;;;;;;;53.25;50.58;;;;;;;;;;5027899;28;20033;-59
2024/01/04 10:51:09;;;;;;;52.90;50.25;;;;;;;;;;5032016;28;20044;-59
2024/01/04 10:53:36;;;;;;;52.40;49.75;;;;;;;;;;5030624;28;20479;-62
2024/01/04 10:56:05;;;;;;;51.35;48.78;;;;;;;;;;5028223;28;20037;-60
2024/01/04 10:58:37;;;;;;;54.70;51.92;;;;;;;;;;5027930;28;20033;-54
2024/01/04 11:01:03;;;;;;;51.60;49.03;;;;;;;;;;5029828;28;20266;-51
2024/01/04 11:03:31;;;;;;;53.38;50.70;;;;;;;;;;5030407;28;20073;-54
2024/01/04 11:05:59;;;;;;;55.00;51.67;;;;;;;;;;5030969;28;20124;-54
2024/01/04 11:08:25;;;;;;;53.58;50.88;;;;;;;;;;5030791;28;20056;-50
2024/01/04 11:10:52;;;;;;;53.65;50.92;;;;;;;;;;5023181;28;20042;-49
2024/01/04 11:13:18;;;;;;;57.63;54.72;;;;;;;;;;5026611;28;20371;-50
2024/01/04 11:15:43;;;;;;;55.88;53.05;;;;;;;;;;5028359;28;20347;-51
2024/01/04 11:18:08;;;;;;;58.20;55.30;;;;;;;;;;5030304;28;20044;-52
2024/01/04 11:20:57;;;;;;;55.65;52.63;;;;;;;;;;5029210;28;20318;-53
2024/01/04 11:23:36;;;;;;;54.53;51.78;;;;;;;;;;5025319;28;20049;-50
2024/01/04 11:26:11;;;;;;;52.38;49.72;;;;;;;;;;5027600;28;20038;-53
2024/01/04 11:28:37;;;;;;;56.17;53.33;;;;;;;;;;5026587;28;20025;-53
2024/01/04 11:31:03;;;;;;;53.03;50.38;;;;;;;;;;5026271;28;20435;-53
2024/01/04 11:33:29;;;;;;;54.40;51.65;;;;;;;;;;5030826;28;20052;-52
2024/01/04 11:35:55;;;;;;;55.10;52.35;;;;;;;;;;5013573;28;20036;-54
2024/01/04 11:38:25;;;;;;;56.70;53.85;;;;;;;;;;5028594;28;20026;-54
2024/01/04 11:40:50;;;;;;;53.10;50.45;;;;;;;;;;5026546;28;20025;-54
2024/01/04 11:43:16;;;;;;;59.83;56.85;;;;;;;;;;5023969;28;20096;-54
2024/01/04 11:45:44;;;;;;;54.38;50.78;;;;;;;;;;5026426;28;20219;-55
2024/01/04 11:48:10;;;;;;;51.53;48.92;;;;;;;;;;5029390;28;20032;-55
2024/01/04 11:50:44;;;;;;;53.92;51.20;;;;;;;;;;5022846;28;20379;-54
2024/01/04 11:53:12;;;;;;;52.63;49.95;;;;;;;;;;5028225;28;20060;-51
2024/01/04 11:55:38;;;;;;;50.45;47.88;;;;;;;;;;5029218;28;20048;-53
2024/01/04 11:58:14;;;;;;;48.42;45.83;;;;;;;;;;5027482;28;20028;-54
2024/01/04 12:00:41;;;;;;;45.40;43.05;;;;;;;;;;5028219;28;20164;-53
2024/01/04 12:03:17;;;;;;;42.90;40.50;;;;;;;;;;5029752;28;20128;-53
2024/01/04 12:05:45;;;;;;;38.92;36.92;;;;;;;;;;5024881;28;20032;-51
2024/01/04 12:08:22;;;;;;;39.47;37.40;;;;;;;;;;5025070;28;20451;-53
2024/01/04 12:10:52;;;;;;;37.35;35.38;;;;;;;;;;5020614;28;20041;-56
2024/01/04 12:13:17;;;;;;;38.10;35.85;;;;;;;;;;5024738;28;20037;-54
2024/01/04 12:15:42;;;;;;;38.00;36.00;;;;;;;;;;5027357;28;20036;-55
2024/01/04 12:18:08;;;;;;;36.97;35.08;;;;;;;;;;5026741;28;20144;-54
2024/01/04 12:20:33;;;;;;;36.95;35.05;;;;;;;;;;5030356;28;20037;-55
2024/01/04 12:22:58;;;;;;;36.78;34.88;;;;;;;;;;5025494;28;20029;-50
2024/01/04 12:25:24;;;;;;;36.83;34.78;;;;;;;;;;5029413;28;20040;-56
2024/01/04 12:27:49;;;;;;;34.25;32.38;;;;;;;;;;5029207;28;20460;-53
2024/01/04 12:30:15;;;;;;;33.03;31.23;;;;;;;;;;5027162;28;20049;-53
2024/01/04 12:32:40;;;;;;;34.20;32.40;;;;;;;;;;5029383;28;20036;-55
2024/01/04 12:35:15;;;;;;;32.20;30.52;;;;;;;;;;5026178;28;20066;-52
2024/01/04 12:37:40;;;;;;;31.95;30.30;;;;;;;;;;5021721;28;20040;-55
2024/01/04 12:40:07;;;;;;;33.85;32.08;;;;;;;;;;5022892;28;20028;-56
2024/01/04 12:42:34;;;;;;;33.92;32.17;;;;;;;;;;5026822;28;20467;-54
2024/01/04 12:44:59;;;;;;;37.63;35.65;;;;;;;;;;5030381;28;20084;-54
2024/01/04 12:47:25;;;;;;;35.40;33.55;;;;;;;;;;5008001;28;20434;-52
2024/01/04 12:49:57;;;;;;;33.67;31.95;;;;;;;;;;5030884;28;20098;-54
2024/01/04 12:52:23;;;;;;;36.80;34.90;;;;;;;;;;5021967;28;20107;-53
2024/01/04 12:54:48;;;;;;;35.50;33.70;;;;;;;;;;5022894;28;20029;-52
2024/01/04 12:57:14;;;;;;;37.05;35.15;;;;;;;;;;5029449;28;20048;-52
2024/01/04 12:59:41;;;;;;;36.40;34.53;;;;;;;;;;5018814;28;20055;-54
2024/01/04 13:02:07;;;;;;;35.08;33.28;;;;;;;;;;5032017;28;20045;-55
2024/01/04 13:04:32;;;;;;;36.70;34.47;;;;;;;;;;5026435;28;20362;-55
2024/01/04 13:06:58;;;;;;;34.88;32.97;;;;;;;;;;5027724;28;20090;-54
2024/01/04 13:09:23;;;;;;;39.70;37.35;;;;;;;;;;5026931;28;20099;-54
2024/01/04 13:11:48;;;;;;;35.13;33.33;;;;;;;;;;5031712;28;20029;-54
2024/01/04 13:14:14;;;;;;;38.17;35.72;;;;;;;;;;5029069;28;20045;-51
2024/01/04 13:16:39;;;;;;;37.22;35.33;;;;;;;;;;5025844;28;20714;-52
2024/01/04 13:19:05;;;;;;;37.72;35.80;;;;;;;;;;5029900;28;20045;-56
2024/01/04 13:21:30;;;;;;;35.80;33.97;;;;;;;;;;5012674;28;20359;-53
2024/01/04 13:23:55;;;;;;;34.65;32.85;;;;;;;;;;5025902;28;20028;-56
2024/01/04 13:26:21;;;;;;;34.65;32.85;;;;;;;;;;5025895;28;20068;-52
2024/01/04 13:28:46;;;;;;;35.72;33.90;;;;;;;;;;5029357;28;20482;-51
2024/01/04 13:31:11;;;;;;;35.00;33.20;;;;;;;;;;5028788;28;20034;-54
2024/01/04 13:33:37;;;;;;;36.28;34.38;;;;;;;;;;5026728;28;20036;-54
2024/01/04 13:36:02;;;;;;;35.83;34.00;;;;;;;;;;5028340;28;20050;-53
2024/01/04 13:38:28;;;;;;;36.72;34.55;;;;;;;;;;5031952;28;20072;-55
2024/01/04 13:40:53;;;;;;;34.95;33.15;;;;;;;;;;5028437;28;20033;-54
2024/01/04 13:43:19;;;;;;;36.55;34.60;;;;;;;;;;5030519;28;20048;-52
2024/01/04 13:45:44;;;;;;;36.72;34.42;;;;;;;;;;5027954;28;20076;-52
2024/01/04 13:48:09;;;;;;;35.60;33.58;;;;;;;;;;5029942;28;20493;-54
2024/01/04 13:50:35;;;;;;;35.83;33.92;;;;;;;;;;5028540;28;20072;-54
2024/01/04 13:53:02;;;;;;;35.80;33.97;;;;;;;;;;5018689;28;20124;-56
2024/01/04 13:55:28;;;;;;;35.78;33.90;;;;;;;;;;5030046;28;20476;-53
2024/01/04 13:57:54;;;;;;;34.90;33.10;;;;;;;;;;5027060;28;20051;-55
2024/01/04 14:00:20;;;;;;;34.95;33.13;;;;;;;;;;5031068;28;20079;-55
2024/01/04 14:02:46;;;;;;;35.08;33.28;;;;;;;;;;5029265;28;20266;-51
2024/01/04 14:05:11;;;;;;;34.30;32.50;;;;;;;;;;5030050;28;20510;-51
2024/01/04 14:07:36;;;;;;;34.40;32.60;;;;;;;;;;5022403;28;20104;-55
2024/01/04 14:10:03;;;;;;;34.63;32.83;;;;;;;;;;5032560;28;20048;-55
2024/01/04 14:12:29;;;;;;;35.47;33.67;;;;;;;;;;5024638;28;20030;-55